Danville, Washington
Current Conditions -  °F | °C
As of 9:00 PM on Monday 20 Oct 2014 (Local Time) from CYCG Reporting Station
Overcast Overcast  
Wind Chill: 12°   Ceiling: 5500
Heat Index: 12°   Visibility: 15mi
Dew Point: 11°   Wind: 8mph
Humidity: 94%   Direction: 360°N
Pressure: 29.72"   Gusts: NA
Location:  48.99°N, 118.51°W
Report Text: CYCG 210400Z 36007KT 15SM OVC055 12/11 A2972 RMK SC8 LAST OBS/NEXT 211300UTC SLP068 DENSITY ALT 1900FT
Loading
Personal Weather Stations






























Interactive Weather Map
Tropical Storm Tracking
New forecast layout! Learn more

10-Day Weather Forecast

Advertisements
Track Severe Weather on mobile